Time;durP1;ratioP1;P1;durP2;ratioP2;P2;SDS_P1;SDS_P2;PMS_P1;PMS_P2;Temp;Humidity;BMP_temperature;BMP_pressure;BME280_temperature;BME280_humidity;BME280_pressure;Samples;Min_cycle;Max_cycle;Signal;HPM_P1;HPM_P2
2022/06/18 00:01:35;;;;;;;;;;;;;;;16.50;71.46;99788.81;8377723;28;19959;-76
2022/06/18 00:05:37;;;;;;;;;;;;;;;16.46;71.93;99792.41;8360323;28;19964;-76
2022/06/18 00:09:43;;;;;;;;;;;;;;;16.40;72.15;99794.31;8342573;28;20348;-76
2022/06/18 00:13:44;;;;;;;;;;;;;;;16.36;72.87;99790.91;8377470;28;19939;-76
2022/06/18 00:17:46;;;;;;;;;;;;;;;16.31;73.05;99783.09;8369014;28;19939;-76
2022/06/18 00:21:48;;;;;;;;;;;;;;;16.29;72.76;99786.66;8373617;28;19956;-77
2022/06/18 00:25:51;;;;;;;;;;;;;;;16.25;73.07;99791.09;8347154;28;20264;-76
2022/06/18 00:29:52;;;;;;;;;;;;;;;16.21;72.67;99789.47;8364805;28;20323;-75
2022/06/18 00:33:53;;;;;;;;;;;;;;;16.15;73.24;99789.56;8365078;28;19940;-76
2022/06/18 00:37:56;;;;;;;;;;;;;;;16.13;73.96;99793.13;8357918;28;19928;-76
2022/06/18 00:42:02;;;;;;;;;;;;;;;16.10;73.81;99787.94;8352236;28;20376;-76
2022/06/18 00:46:22;;;;;;;;;;;;;;;15.98;74.23;99787.31;8355994;28;20279;-76
2022/06/18 00:50:44;;;;;;;;;;;;;;;15.94;74.07;99779.53;8360375;28;19936;-76
2022/06/18 00:54:55;;;;;;;;;;;;;;;15.94;74.59;99779.53;8372372;28;19928;-76
2022/06/18 00:59:02;;;;;;;;;;;;;;;15.94;75.60;99785.63;8371229;28;19972;-76
2022/06/18 01:03:04;;;;;;;;;;;;;;;15.84;76.17;99772.75;8372535;28;20012;-76
2022/06/18 01:07:20;;;;;;;;;;;;;;;15.83;75.81;99773.66;8366763;28;20333;-76
2022/06/18 01:11:24;;;;;;;;;;;;;;;15.79;76.08;99774.59;8370392;28;19966;-76
2022/06/18 01:15:26;;;;;;;;;;;;;;;15.66;76.23;99766.13;8348664;28;19929;-76
2022/06/18 01:19:32;;;;;;;;;;;;;;;15.58;76.75;99755.75;8370393;28;20732;-76
2022/06/18 01:23:43;;;;;;;;;;;;;;;15.59;76.74;99756.66;8348125;28;20312;-76
2022/06/18 01:27:44;;;;;;;;;;;;;;;15.57;76.12;99759.25;8366852;28;19936;-76
2022/06/18 01:31:47;;;;;;;;;;;;;;;15.53;76.20;99752.38;8375364;28;20403;-76
2022/06/18 01:35:51;;;;;;;;;;;;;;;15.45;76.36;99748.19;8366184;28;19939;-76
2022/06/18 01:39:52;;;;;;;;;;;;;;;15.38;77.28;99742.16;8371442;28;19955;-76
2022/06/18 01:43:55;;;;;;;;;;;;;;;15.38;77.68;99736.94;8388322;28;19929;-76
2022/06/18 01:48:00;;;;;;;;;;;;;;;15.35;77.48;99740.47;8372190;28;19968;-76
2022/06/18 01:52:03;;;;;;;;;;;;;;;15.30;77.68;99739.72;8358754;28;20416;-76
2022/06/18 01:56:16;;;;;;;;;;;;;;;15.25;78.00;99733.69;8382009;28;19928;-76
2022/06/18 02:00:20;;;;;;;;;;;;;;;15.21;78.31;99737.25;8376802;28;19972;-76
2022/06/18 02:04:23;;;;;;;;;;;;;;;15.17;78.02;99732.97;8377225;28;19932;-76
2022/06/18 02:08:25;;;;;;;;;;;;;;;15.16;78.03;99743.47;8351188;28;19935;-76
2022/06/18 02:12:35;;;;;;;;;;;;;;;15.16;78.04;99743.47;8381536;28;19928;-76
2022/06/18 02:16:43;;;;;;;;;;;;;;;15.07;78.01;99742.72;8379320;28;20368;-76
2022/06/18 02:20:47;;;;;;;;;;;;;;;15.02;78.38;99738.44;8362470;28;19987;-76
2022/06/18 02:24:49;;;;;;;;;;;;;;;14.98;78.86;99737.66;8369548;28;19968;-76
2022/06/18 02:28:51;;;;;;;;;;;;;;;14.91;79.03;99729.94;8383181;28;20340;-76
2022/06/18 02:32:55;;;;;;;;;;;;;;;14.85;78.95;99728.28;8393120;28;20027;-76
2022/06/18 02:36:59;;;;;;;;;;;;;;;14.84;78.61;99729.16;8382250;28;19928;-76
2022/06/18 02:41:00;;;;;;;;;;;;;;;14.80;78.83;99730.97;8372656;28;20023;-76
2022/06/18 02:45:04;;;;;;;;;;;;;;;14.78;79.14;99731.88;8357673;28;19970;-76
2022/06/18 02:49:07;;;;;;;;;;;;;;;14.77;79.28;99733.63;8375816;28;19966;-76
2022/06/18 02:53:11;;;;;;;;;;;;;;;14.75;79.28;99730.19;8383795;28;20140;-76
2022/06/18 02:57:19;;;;;;;;;;;;;;;14.71;79.31;99728.47;8381645;28;20019;-76
2022/06/18 03:01:22;;;;;;;;;;;;;;;14.60;80.04;99732.16;8372904;28;19928;-76
2022/06/18 03:05:25;;;;;;;;;;;;;;;14.51;80.73;99731.41;8381361;28;20028;-76
2022/06/18 03:09:27;;;;;;;;;;;;;;;14.52;80.64;99734.88;8373387;28;19986;-76
2022/06/18 03:13:29;;;;;;;;;;;;;;;14.50;80.90;99724.44;8380506;28;20004;-75
2022/06/18 03:17:30;;;;;;;;;;;;;;;14.47;80.86;99732.34;8358343;28;19928;-77
2022/06/18 03:21:39;;;;;;;;;;;;;;;14.39;80.83;99721.13;8369462;28;20386;-77
2022/06/18 03:25:40;;;;;;;;;;;;;;;14.27;81.15;99731.72;8388490;28;20014;-77
2022/06/18 03:29:42;;;;;;;;;;;;;;;14.31;81.25;99730.81;8354015;28;20016;-77
2022/06/18 03:33:46;;;;;;;;;;;;;;;14.36;81.24;99730.72;8370366;28;19928;-78
2022/06/18 03:37:47;;;;;;;;;;;;;;;14.36;81.08;99739.47;8355097;28;19928;-78
2022/06/18 03:41:49;;;;;;;;;;;;;;;14.35;81.42;99747.28;8367396;28;20027;-78
2022/06/18 03:45:59;;;;;;;;;;;;;;;14.33;81.41;99752.53;8360850;28;19939;-77
2022/06/18 03:50:01;;;;;;;;;;;;;;;14.25;81.81;99749.19;8368193;28;20708;-76
2022/06/18 03:54:02;;;;;;;;;;;;;;;14.25;81.88;99757.00;8361389;28;20343;-78
2022/06/18 03:58:04;;;;;;;;;;;;;;;14.31;81.93;99751.69;8351662;28;19964;-76
2022/06/18 04:02:07;;;;;;;;;;;;;;;14.37;82.23;99753.38;8388403;28;19975;-77
2022/06/18 04:06:09;;;;;;;;;;;;;;;14.39;81.68;99759.44;8372373;28;19928;-77
2022/06/18 04:10:15;;;;;;;;;;;;;;;14.41;81.79;99753.31;8365062;28;20047;-77
2022/06/18 04:14:17;;;;;;;;;;;;;;;14.45;82.04;99746.31;8378274;28;20010;-77
2022/06/18 04:18:18;;;;;;;;;;;;;;;14.55;81.88;99744.44;8374968;28;20024;-78
2022/06/18 04:22:22;;;;;;;;;;;;;;;14.64;81.94;99739.94;8369820;28;19967;-78
2022/06/18 04:26:24;;;;;;;;;;;;;;;14.68;81.85;99740.75;8359345;28;19929;-77
2022/06/18 04:30:28;;;;;;;;;;;;;;;14.71;81.43;99733.72;8358125;28;20236;-78
2022/06/18 04:34:33;;;;;;;;;;;;;;;14.76;81.43;99736.28;8377764;28;19969;-78
2022/06/18 04:38:39;;;;;;;;;;;;;;;14.85;81.33;99736.13;8360580;28;19980;-78
2022/06/18 04:42:40;;;;;;;;;;;;;;;14.93;80.82;99734.25;8350852;28;20253;-77
2022/06/18 04:46:56;;;;;;;;;;;;;;;15.03;80.33;99734.94;8348398;28;19928;-77
2022/06/18 04:50:59;;;;;;;;;;;;;;;15.15;80.37;99733.88;8316165;28;19928;-77
2022/06/18 04:55:01;;;;;;;;;;;;;;;15.36;80.16;99728.25;8353391;28;19986;-78
2022/06/18 04:59:03;;;;;;;;;;;;;;;15.61;80.13;99732.16;8352875;28;19932;-78
2022/06/18 05:03:05;;;;;;;;;;;;;;;15.78;79.95;99723.13;8343210;28;20293;-77
2022/06/18 05:07:09;;;;;;;;;;;;;;;15.96;78.45;99727.97;8356831;28;20387;-77
2022/06/18 05:11:10;;;;;;;;;;;;;;;16.16;77.82;99722.34;8352346;28;20612;-78
2022/06/18 05:15:16;;;;;;;;;;;;;;;16.38;77.04;99718.34;8347943;28;19933;-78
2022/06/18 05:19:23;;;;;;;;;;;;;;;16.61;75.87;99709.94;8349760;28;19940;-77
2022/06/18 05:23:26;;;;;;;;;;;;;;;16.87;74.37;99710.19;8355944;28;20028;-78
2022/06/18 05:27:32;;;;;;;;;;;;;;;17.13;73.49;99703.41;8341547;28;19937;-78
2022/06/18 05:31:34;;;;;;;;;;;;;;;17.42;72.54;99705.28;8335623;28;20023;-77
2022/06/18 05:35:40;;;;;;;;;;;;;;;17.72;71.78;99704.44;8353386;28;19928;-77
2022/06/18 05:39:43;;;;;;;;;;;;;;;18.05;71.08;99691.22;8362162;28;19933;-77
2022/06/18 05:44:04;;;;;;;;;;;;;;;18.39;69.84;99691.06;8338730;28;19940;-76
2022/06/18 05:48:06;;;;;;;;;;;;;;;18.68;68.43;99688.41;8335338;28;19933;-77
2022/06/18 05:52:10;;;;;;;;;;;;;;;19.05;65.47;99683.69;8347002;28;20329;-77
2022/06/18 05:56:12;;;;;;;;;;;;;;;19.41;63.40;99681.53;8353243;28;20024;-78
2022/06/18 06:00:14;;;;;;;;;;;;;;;19.80;63.33;99679.25;8340484;28;20019;-78
2022/06/18 06:04:19;;;;;;;;;;;;;;;20.23;63.08;99681.94;8343875;28;19929;-78
2022/06/18 06:08:25;;;;;;;;;;;;;;;20.65;61.95;99683.84;8347940;28;19929;-79
2022/06/18 06:12:26;;;;;;;;;;;;;;;21.04;59.35;99676.03;8360049;28;20241;-79
2022/06/18 06:16:30;;;;;;;;;;;;;;;21.41;57.66;99680.59;8355187;28;20545;-77
2022/06/18 06:20:34;;;;;;;;;;;;;;;21.83;56.74;99684.03;8362395;28;19929;-78
2022/06/18 06:24:35;;;;;;;;;;;;;;;22.32;55.68;99685.28;8356734;28;19929;-77
2022/06/18 06:28:43;;;;;;;;;;;;;;;22.72;53.72;99686.84;8368230;28;19939;-78
2022/06/18 06:32:46;;;;;;;;;;;;;;;23.07;53.43;99686.91;8347605;28;19940;-78
2022/06/18 06:36:49;;;;;;;;;;;;;;;23.39;52.89;99690.53;8344712;28;20300;-77
2022/06/18 06:40:54;;;;;;;;;;;;;;;23.71;52.52;99681.78;8343406;28;19929;-78
2022/06/18 06:44:58;;;;;;;;;;;;;;;23.94;52.59;99680.53;8343298;28;19928;-77
2022/06/18 06:49:00;;;;;;;;;;;;;;;24.18;52.01;99682.75;8342650;28;19932;-77
2022/06/18 06:53:04;;;;;;;;;;;;;;;24.45;52.04;99675.94;8341993;28;19972;-77
2022/06/18 06:57:22;;;;;;;;;;;;;;;24.79;51.97;99676.66;8337648;28;19939;-77
2022/06/18 07:01:25;;;;;;;;;;;;;;;25.11;50.36;99675.63;8341917;28;19932;-77
2022/06/18 07:05:27;;;;;;;;;;;;;;;25.34;49.51;99671.63;8312737;28;20195;-77
2022/06/18 07:09:35;;;;;;;;;;;;;;;25.66;49.38;99666.09;8303827;28;19928;-78
2022/06/18 07:13:38;;;;;;;;;;;;;;;25.80;46.73;99661.66;8326160;28;19956;-77
2022/06/18 07:17:40;;;;;;;;;;;;;;;26.06;47.12;99659.19;8318673;28;19929;-76
2022/06/18 07:21:42;;;;;;;;;;;;;;;26.36;47.59;99657.22;8346954;28;19929;-77
2022/06/18 07:25:43;;;;;;;;;;;;;;;26.46;46.52;99650.34;8334430;28;20034;-76
2022/06/18 07:29:45;;;;;;;;;;;;;;;26.47;45.82;99649.41;8312609;28;20597;-76
2022/06/18 07:33:46;;;;;;;;;;;;;;;26.61;45.57;99645.81;8342241;28;20285;-76
2022/06/18 07:37:48;;;;;;;;;;;;;;;26.82;45.57;99632.88;8360677;28;19974;-76
2022/06/18 07:41:53;;;;;;;;;;;;;;;27.09;45.78;99635.50;8345562;28;19935;-76
2022/06/18 07:45:54;;;;;;;;;;;;;;;27.52;44.59;99632.53;8380305;28;19929;-76
2022/06/18 07:49:56;;;;;;;;;;;;;;;27.77;43.82;99631.66;8339069;28;19925;-76
2022/06/18 07:53:57;;;;;;;;;;;;;;;27.93;43.29;99632.25;8370024;28;20242;-76
2022/06/18 07:57:58;;;;;;;;;;;;;;;28.32;43.98;99628.53;8353840;28;20294;-76
2022/06/18 08:02:00;;;;;;;;;;;;;;;28.57;41.34;99631.09;8360097;28;20023;-76
2022/06/18 08:06:01;;;;;;;;;;;;;;;28.83;41.16;99631.78;8379826;28;20020;-77
2022/06/18 08:10:04;;;;;;;;;;;;;;;29.07;39.96;99625.56;8364778;28;19928;-78
2022/06/18 08:14:05;;;;;;;;;;;;;;;29.19;38.71;99621.94;8346847;28;19928;-76
2022/06/18 08:18:07;;;;;;;;;;;;;;;29.37;37.07;99616.97;8362013;28;19944;-76
2022/06/18 08:22:29;;;;;;;;;;;;;;;29.44;38.61;99618.19;8364641;28;19929;-77
2022/06/18 08:26:31;;;;;;;;;;;;;;;29.76;38.23;99613.00;8343405;28;20036;-76
2022/06/18 08:30:32;;;;;;;;;;;;;;;30.09;37.30;99606.75;8355491;28;20235;-77
2022/06/18 08:34:33;;;;;;;;;;;;;;;30.41;38.47;99604.13;8366926;28;19939;-77
2022/06/18 08:38:35;;;;;;;;;;;;;;;30.60;37.01;99595.38;8353847;28;20048;-77
2022/06/18 08:42:44;;;;;;;;;;;;;;;30.83;37.72;99590.78;8329509;28;20524;-75
2022/06/18 08:47:10;;;;;;;;;;;;;;;31.10;36.80;99593.81;8336029;28;19929;-76
2022/06/18 08:51:23;;;;;;;;;;;;;;;31.25;35.46;99575.56;8334938;28;19939;-74
2022/06/18 08:55:24;;;;;;;;;;;;;;;31.22;34.82;99575.78;8332254;28;19929;-74
2022/06/18 08:59:35;;;;;;;;;;;;;;;31.49;35.54;99573.41;8335851;28;20419;-75
2022/06/18 09:03:39;;;;;;;;;;;;;;;31.41;33.47;99570.50;8348248;28;19932;-74
2022/06/18 09:07:44;;;;;;;;;;;;;;;31.66;34.69;99571.91;8330297;28;19936;-74
2022/06/18 09:12:06;;;;;;;;;;;;;;;31.95;35.92;99563.06;8355999;28;19929;-75
2022/06/18 09:16:10;;;;;;;;;;;;;;;32.17;35.94;99570.91;8347275;28;19971;-74
2022/06/18 09:20:15;;;;;;;;;;;;;;;32.36;34.45;99562.91;8335420;28;19971;-74
2022/06/18 09:24:21;;;;;;;;;;;;;;;32.54;34.49;99552.28;8341207;28;20620;-74
2022/06/18 09:28:27;;;;;;;;;;;;;;;32.63;34.08;99555.94;8332359;28;19956;-74
2022/06/18 09:32:37;;;;;;;;;;;;;;;32.50;33.29;99548.19;8320178;28;19929;-74
2022/06/18 09:36:43;;;;;;;;;;;;;;;32.73;34.77;99546.03;8343265;28;19929;-73
2022/06/18 09:40:50;;;;;;;;;;;;;;;32.79;33.05;99544.59;8377832;28;20032;-73
2022/06/18 09:44:57;;;;;;;;;;;;;;;32.88;33.25;99539.22;8361927;28;19932;-74
2022/06/18 09:48:58;;;;;;;;;;;;;;;32.87;32.26;99537.53;8367370;28;20023;-73
2022/06/18 09:53:06;;;;;;;;;;;;;;;33.03;32.26;99535.06;8353251;28;20055;-74
2022/06/18 09:57:08;;;;;;;;;;;;;;;33.25;33.45;99535.72;8341396;28;20027;-74
2022/06/18 10:01:16;;;;;;;;;;;;;;;33.38;31.92;99533.53;8370455;28;19932;-74
2022/06/18 10:09:49;;;;;;;;;;;;;;;33.43;32.63;99525.88;8367801;28;20015;-74
2022/06/18 10:13:54;;;;;;;;;;;;;;;33.44;31.44;99516.81;8379695;28;19935;-74
2022/06/18 10:18:02;;;;;;;;;;;;;;;33.57;31.83;99506.50;8385212;28;20871;-74
2022/06/18 10:22:39;;;;;;;;;;;;;;;33.80;30.53;99508.81;8373968;28;20011;-74
2022/06/18 10:26:43;;;;;;;;;;;;;;;33.73;30.75;99500.47;8286976;28;19929;-74
2022/06/18 10:30:47;;;;;;;;;;;;;;;33.79;30.79;99504.41;8357833;28;19939;-73
2022/06/18 10:34:58;;;;;;;;;;;;;;;33.91;30.29;99492.44;8365210;28;19979;-74
2022/06/18 10:39:15;;;;;;;;;;;;;;;34.23;32.03;99481.09;8382436;28;19964;-74
2022/06/18 10:43:42;;;;;;;;;;;;;;;34.38;28.11;99474.19;8375840;28;19963;-74
2022/06/18 10:47:46;;;;;;;;;;;;;;;34.54;25.66;99466.22;8361645;28;19982;-74
2022/06/18 10:51:48;;;;;;;;;;;;;;;34.62;25.33;99465.41;8360625;28;19967;-74
2022/06/18 10:55:56;;;;;;;;;;;;;;;34.81;25.29;99458.94;8364705;28;19928;-74
2022/06/18 11:00:07;;;;;;;;;;;;;;;34.85;25.74;99457.69;8359739;28;20528;-74
2022/06/18 11:04:19;;;;;;;;;;;;;;;35.13;25.90;99453.75;8343764;28;20426;-74
2022/06/18 11:08:23;;;;;;;;;;;;;;;35.24;23.50;99449.09;8339874;28;19975;-74
2022/06/18 11:12:27;;;;;;;;;;;;;;;35.24;25.46;99436.41;8368071;28;20395;-74
2022/06/18 11:16:28;;;;;;;;;;;;;;;35.41;24.13;99435.50;8368918;28;19928;-75
2022/06/18 11:20:31;;;;;;;;;;;;;;;35.32;23.56;99422.09;8366152;28;19933;-74
2022/06/18 11:24:34;;;;;;;;;;;;;;;35.39;23.36;99413.22;8353752;28;20516;-74
2022/06/18 11:28:42;;;;;;;;;;;;;;;35.42;23.69;99410.19;8361442;28;20024;-74
2022/06/18 11:32:46;;;;;;;;;;;;;;;35.58;24.68;99412.06;8366187;28;20253;-74
2022/06/18 11:36:49;;;;;;;;;;;;;;;35.65;23.90;99398.72;8384975;28;20035;-74
2022/06/18 11:40:53;;;;;;;;;;;;;;;35.78;23.54;99404.50;8357043;28;19939;-74
2022/06/18 11:44:58;;;;;;;;;;;;;;;35.76;23.01;99387.59;8365531;28;19976;-74
2022/06/18 11:49:03;;;;;;;;;;;;;;;35.89;23.34;99387.97;8358474;28;19933;-73
2022/06/18 11:53:11;;;;;;;;;;;;;;;35.90;21.96;99376.13;8358663;28;19976;-73
2022/06/18 11:57:20;;;;;;;;;;;;;;;36.03;23.65;99373.75;8368082;28;20618;-73
2022/06/18 12:01:22;;;;;;;;;;;;;;;35.84;21.92;99357.06;8376774;28;19979;-74
2022/06/18 12:05:40;;;;;;;;;;;;;;;35.95;23.14;99359.44;8362749;28;20353;-73
2022/06/18 12:09:42;;;;;;;;;;;;;;;35.95;23.28;99349.47;8361739;28;20229;-74
2022/06/18 12:13:46;;;;;;;;;;;;;;;36.27;24.68;99347.72;8364331;28;20031;-73
2022/06/18 12:18:05;;;;;;;;;;;;;;;36.20;20.49;99342.16;8373758;28;19928;-74
2022/06/18 12:22:23;;;;;;;;;;;;;;;36.12;19.98;99336.75;8345489;28;19967;-73
2022/06/18 12:26:31;;;;;;;;;;;;;;;35.87;20.79;99329.69;8379529;28;20005;-73
2022/06/18 12:30:36;;;;;;;;;;;;;;;35.92;19.94;99328.19;8349494;28;20274;-73
2022/06/18 12:34:44;;;;;;;;;;;;;;;36.05;19.29;99319.53;8359569;28;19976;-73
2022/06/18 12:38:51;;;;;;;;;;;;;;;36.14;19.75;99314.97;8350125;28;20023;-73
2022/06/18 12:43:08;;;;;;;;;;;;;;;36.35;19.98;99309.03;8355135;28;19968;-73
2022/06/18 12:47:12;;;;;;;;;;;;;;;36.55;19.94;99299.47;8346550;28;19929;-73
2022/06/18 12:51:14;;;;;;;;;;;;;;;36.65;19.89;99296.56;8349466;28;20009;-73
2022/06/18 12:55:18;;;;;;;;;;;;;;;36.80;20.20;99287.53;8352624;28;19972;-73
2022/06/18 12:59:25;;;;;;;;;;;;;;;36.88;18.55;99286.66;8345461;28;19939;-73
2022/06/18 13:03:42;;;;;;;;;;;;;;;36.80;20.08;99276.69;8357853;28;19932;-73
2022/06/18 13:07:52;;;;;;;;;;;;;;;36.86;20.60;99262.47;8355147;28;20506;-73
2022/06/18 13:12:09;;;;;;;;;;;;;;;36.94;19.71;99260.72;8348177;28;19962;-73
2022/06/18 13:16:10;;;;;;;;;;;;;;;36.87;18.69;99250.63;8347715;28;19932;-73
2022/06/18 13:20:14;;;;;;;;;;;;;;;36.86;19.49;99248.09;8357600;28;19929;-73
2022/06/18 13:28:40;;;;;;;;;;;;;;;36.98;19.44;99229.56;8363586;28;19942;-73
2022/06/18 13:32:48;;;;;;;;;;;;;;;36.81;18.69;99223.44;8353092;28;19930;-73
2022/06/18 13:37:01;;;;;;;;;;;;;;;36.85;19.24;99212.06;8348947;28;19929;-73
2022/06/18 13:41:13;;;;;;;;;;;;;;;36.98;19.59;99214.16;8351728;28;20222;-73
2022/06/18 13:45:33;;;;;;;;;;;;;;;37.07;19.46;99204.97;8351702;28;19950;-73
2022/06/18 13:49:38;;;;;;;;;;;;;;;36.96;18.51;99199.13;8362057;28;19960;-73
2022/06/18 13:53:42;;;;;;;;;;;;;;;37.04;19.99;99190.97;8367499;28;19935;-73
2022/06/18 13:57:46;;;;;;;;;;;;;;;37.06;20.11;99178.06;8354688;28;19939;-74
2022/06/18 14:01:59;;;;;;;;;;;;;;;37.06;19.43;99180.78;8361692;28;19978;-73
2022/06/18 14:06:05;;;;;;;;;;;;;;;37.06;19.07;99176.22;8373770;28;20370;-73
2022/06/18 14:10:11;;;;;;;;;;;;;;;37.01;18.79;99165.09;8354605;28;19948;-73
2022/06/18 14:14:24;;;;;;;;;;;;;;;36.90;19.06;99152.81;8353313;28;19929;-72
2022/06/18 14:18:26;;;;;;;;;;;;;;;36.79;18.63;99147.81;8345661;28;20375;-73
2022/06/18 14:22:29;;;;;;;;;;;;;;;36.79;20.13;99142.41;8336267;28;19939;-73
2022/06/18 14:26:42;;;;;;;;;;;;;;;36.88;19.49;99138.63;8352631;28;19987;-73
2022/06/18 14:30:45;;;;;;;;;;;;;;;36.85;20.27;99132.72;8351896;28;20008;-73
2022/06/18 14:34:47;;;;;;;;;;;;;;;36.89;20.03;99123.22;8345921;28;19933;-73
2022/06/18 14:38:50;;;;;;;;;;;;;;;36.93;19.96;99127.25;8371494;28;19972;-73
2022/06/18 14:43:05;;;;;;;;;;;;;;;36.68;20.04;99112.19;8354421;28;19987;-73
2022/06/18 14:47:06;;;;;;;;;;;;;;;36.78;21.27;99107.38;8358687;28;19932;-73
2022/06/18 14:51:22;;;;;;;;;;;;;;;36.88;20.78;99102.59;8348161;28;19929;-72
2022/06/18 14:55:34;;;;;;;;;;;;;;;36.97;21.74;99093.34;8356125;28;19943;-73
2022/06/18 14:59:45;;;;;;;;;;;;;;;37.03;20.93;99091.81;8356288;28;19960;-73
2022/06/18 15:04:03;;;;;;;;;;;;;;;36.99;20.66;99074.25;8370084;28;19933;-73
2022/06/18 15:08:14;;;;;;;;;;;;;;;37.02;22.39;99079.28;8373878;28;20362;-73
2022/06/18 15:12:16;;;;;;;;;;;;;;;36.97;19.86;99060.03;8359426;28;19938;-73
2022/06/18 15:21:49;;;;;;;;;;;;;;;37.00;20.66;99052.41;8241497;28;20716;-73
2022/06/18 15:25:38;;;;;;;;;;;;;;;36.91;21.45;99048.06;8300790;28;19975;-73
2022/06/18 15:29:44;;;;;;;;;;;;;;;36.95;21.75;99035.84;8343368;28;19940;-73
2022/06/18 15:33:47;;;;;;;;;;;;;;;36.74;22.36;99027.56;8360875;28;20392;-73
2022/06/18 15:37:54;;;;;;;;;;;;;;;36.74;24.48;99019.44;8360498;28;20297;-73
2022/06/18 15:41:56;;;;;;;;;;;;;;;36.78;23.74;99018.88;8362948;28;20419;-73
2022/06/18 15:45:59;;;;;;;;;;;;;;;36.63;22.12;99015.34;8364107;28;19928;-72
2022/06/18 15:50:05;;;;;;;;;;;;;;;36.68;24.05;99012.06;8358038;28;19935;-73
2022/06/18 15:54:16;;;;;;;;;;;;;;;36.50;26.12;99009.69;8367131;28;19943;-72
2022/06/18 15:58:17;;;;;;;;;;;;;;;36.33;24.46;98995.47;8327947;28;19929;-73
2022/06/18 16:02:19;;;;;;;;;;;;;;;36.21;26.51;98988.75;8360272;28;19972;-73
2022/06/18 16:06:21;;;;;;;;;;;;;;;36.00;27.63;98990.25;8361286;28;19990;-73
2022/06/18 16:10:44;;;;;;;;;;;;;;;35.81;27.44;98979.03;8375790;28;19928;-73
2022/06/18 16:14:51;;;;;;;;;;;;;;;35.45;27.87;98984.97;8357288;28;19952;-72
2022/06/18 16:18:57;;;;;;;;;;;;;;;35.18;28.24;98978.09;8363394;28;20573;-73
2022/06/18 16:23:05;;;;;;;;;;;;;;;34.67;29.61;98964.03;8378484;28;19979;-72
2022/06/18 16:27:18;;;;;;;;;;;;;;;34.69;30.54;98964.72;8373561;28;19933;-72
2022/06/18 16:31:20;;;;;;;;;;;;;;;34.43;31.03;98956.78;8376698;28;20339;-74
2022/06/18 16:35:24;;;;;;;;;;;;;;;34.23;31.64;98950.88;8344937;28;19929;-74
2022/06/18 16:39:40;;;;;;;;;;;;;;;34.00;32.74;98944.47;8365572;28;19978;-72
2022/06/18 16:43:51;;;;;;;;;;;;;;;33.71;33.51;98935.97;8354659;28;19928;-72
2022/06/18 16:47:55;;;;;;;;;;;;;;;33.36;32.89;98929.81;8355182;28;19940;-72
2022/06/18 16:51:58;;;;;;;;;;;;;;;33.10;34.18;98921.78;8350827;28;20340;-72
2022/06/18 16:56:01;;;;;;;;;;;;;;;32.74;34.04;98921.91;8367470;28;19987;-72
2022/06/18 17:00:14;;;;;;;;;;;;;;;32.61;34.35;98917.94;8357279;28;19975;-73
2022/06/18 17:04:16;;;;;;;;;;;;;;;32.29;36.88;98907.81;8380854;28;19974;-72
2022/06/18 17:08:18;;;;;;;;;;;;;;;31.99;38.39;98912.59;8357829;28;19936;-73
2022/06/18 17:12:20;;;;;;;;;;;;;;;31.82;37.10;98900.84;8366908;28;19975;-72
2022/06/18 17:16:22;;;;;;;;;;;;;;;31.67;36.94;98888.09;8364415;28;19968;-72
2022/06/18 17:20:24;;;;;;;;;;;;;;;31.54;39.65;98883.94;8387475;28;19958;-73
2022/06/18 17:33:09;;;;;;;;;;;;;;;30.96;39.80;98856.59;8363332;28;19928;-74
2022/06/18 17:37:11;;;;;;;;;;;;;;;30.81;40.14;98856.22;8378538;28;19929;-74
2022/06/18 17:41:13;;;;;;;;;;;;;;;30.51;40.94;98851.09;8378793;28;20333;-75
2022/06/18 17:45:14;;;;;;;;;;;;;;;30.30;41.99;98844.09;8361329;28;20086;-74
2022/06/18 17:49:16;;;;;;;;;;;;;;;30.17;42.23;98837.41;8372091;28;19928;-73
2022/06/18 17:53:17;;;;;;;;;;;;;;;29.98;43.65;98838.22;8376938;28;19933;-73
2022/06/18 17:57:22;;;;;;;;;;;;;;;29.76;44.16;98837.53;8378038;28;19928;-73
2022/06/18 18:01:26;;;;;;;;;;;;;;;29.58;45.02;98833.88;8378516;28;19940;-72
2022/06/18 18:05:27;;;;;;;;;;;;;;;29.50;45.07;98839.09;8379218;28;19932;-72
2022/06/18 18:09:29;;;;;;;;;;;;;;;29.29;45.68;98833.00;8359618;28;20471;-75
2022/06/18 18:13:30;;;;;;;;;;;;;;;29.10;46.51;98831.13;8360856;28;19936;-75
2022/06/18 18:17:32;;;;;;;;;;;;;;;28.85;47.41;98830.59;8361599;28;19928;-74
2022/06/18 18:21:33;;;;;;;;;;;;;;;28.65;47.98;98828.00;8379620;28;19928;-74
2022/06/18 18:25:38;;;;;;;;;;;;;;;28.51;48.37;98838.06;8366332;28;20015;-74
2022/06/18 18:29:40;;;;;;;;;;;;;;;28.38;48.16;98821.44;8376747;28;20557;-74
2022/06/18 18:33:41;;;;;;;;;;;;;;;28.23;48.29;98815.56;8381237;28;19928;-74
2022/06/18 18:37:43;;;;;;;;;;;;;;;28.05;49.05;98824.31;8343426;28;19929;-74
2022/06/18 18:41:44;;;;;;;;;;;;;;;27.86;49.71;98817.84;8337273;28;20301;-74
2022/06/18 18:45:45;;;;;;;;;;;;;;;27.69;50.33;98813.94;8339570;28;19929;-74
2022/06/18 18:49:47;;;;;;;;;;;;;;;27.53;50.12;98804.66;8338508;28;19939;-74
2022/06/18 18:53:50;;;;;;;;;;;;;;;27.37;51.11;98805.06;8331024;28;19988;-75
2022/06/18 18:57:53;;;;;;;;;;;;;;;27.22;51.26;98806.34;8355329;28;19956;-75
2022/06/18 19:01:54;;;;;;;;;;;;;;;27.03;51.59;98802.50;8325002;28;19929;-74
2022/06/18 19:05:56;;;;;;;;;;;;;;;26.87;51.54;98793.19;8347812;28;19979;-74
2022/06/18 19:09:57;;;;;;;;;;;;;;;26.72;51.61;98790.78;8330203;28;19932;-75
2022/06/18 19:13:59;;;;;;;;;;;;;;;26.47;51.90;98783.91;8350268;28;19928;-75
2022/06/18 19:18:00;;;;;;;;;;;;;;;26.34;52.20;98783.16;8342129;28;19928;-75
2022/06/18 19:22:04;;;;;;;;;;;;;;;26.15;51.72;98777.56;8362647;28;20651;-75
2022/06/18 19:26:08;;;;;;;;;;;;;;;26.02;52.29;98775.00;8355439;28;19939;-74
2022/06/18 19:30:14;;;;;;;;;;;;;;;25.88;52.95;98768.13;8344931;28;19935;-75
2022/06/18 19:34:16;;;;;;;;;;;;;;;25.74;53.34;98759.50;8353907;28;19928;-74
2022/06/18 19:38:18;;;;;;;;;;;;;;;25.55;53.63;98760.03;8364647;28;19942;-75
2022/06/18 19:42:19;;;;;;;;;;;;;;;25.32;54.66;98761.78;8374371;28;20569;-74
2022/06/18 19:46:21;;;;;;;;;;;;;;;25.13;55.36;98767.56;8368229;28;19941;-74
2022/06/18 19:50:25;;;;;;;;;;;;;;;25.04;56.12;98768.28;8366274;28;19928;-74
2022/06/18 19:54:27;;;;;;;;;;;;;;;24.95;56.35;98777.72;8362777;28;19928;-75
2022/06/18 19:58:29;;;;;;;;;;;;;;;24.90;58.18;98774.56;8349217;28;20011;-75
2022/06/18 20:02:31;;;;;;;;;;;;;;;24.83;57.63;98775.13;8333452;28;19972;-75
2022/06/18 20:06:33;;;;;;;;;;;;;;;24.71;58.90;98764.41;8359414;28;19935;-74
2022/06/18 20:10:35;;;;;;;;;;;;;;;24.65;60.07;98754.25;8352060;28;19952;-74
2022/06/18 20:14:36;;;;;;;;;;;;;;;24.58;59.16;98765.41;8337332;28;19951;-73
2022/06/18 20:18:38;;;;;;;;;;;;;;;24.49;58.89;98761.63;8363769;28;19960;-73
2022/06/18 20:22:40;;;;;;;;;;;;;;;24.34;59.85;98752.09;8356014;28;20497;-73
2022/06/18 20:26:42;;;;;;;;;;;;;;;24.25;59.86;98752.72;8373875;28;20440;-73
2022/06/18 20:30:43;;;;;;;;;;;;;;;24.11;59.65;98741.28;8365260;28;19929;-74
2022/06/18 20:34:45;;;;;;;;;;;;;;;24.00;60.90;98750.91;8344120;28;19975;-75
2022/06/18 20:38:49;;;;;;;;;;;;;;;23.87;60.44;98753.56;8378381;28;19929;-74
2022/06/18 20:42:51;;;;;;;;;;;;;;;23.75;60.79;98744.66;8363503;28;20341;-74
2022/06/18 20:46:52;;;;;;;;;;;;;;;23.65;60.96;98734.78;8359707;28;19937;-74
2022/06/18 20:50:56;;;;;;;;;;;;;;;23.55;60.61;98729.25;8383660;28;20498;-76
2022/06/18 20:59:19;;;;;;;;;;;;;;;23.37;62.38;98710.16;8385539;28;19971;-75
2022/06/18 21:03:23;;;;;;;;;;;;;;;23.29;63.08;98703.66;8354668;28;19978;-76
2022/06/18 21:07:26;;;;;;;;;;;;;;;23.16;61.66;98695.66;8366437;28;19984;-76
2022/06/18 21:11:27;;;;;;;;;;;;;;;22.97;62.47;98696.03;8381306;28;19941;-76
2022/06/18 21:15:28;;;;;;;;;;;;;;;22.85;62.75;98692.44;8368861;28;20404;-76
2022/06/18 21:19:30;;;;;;;;;;;;;;;22.78;63.26;98685.78;8362097;28;19971;-76
2022/06/18 21:23:33;;;;;;;;;;;;;;;22.73;63.81;98684.41;8353353;28;20032;-75
2022/06/18 21:27:35;;;;;;;;;;;;;;;22.64;63.57;98680.56;8356355;28;20290;-75
2022/06/18 21:40:07;;;;;;;;;;;;;;;22.40;64.49;98669.75;8332051;28;20581;-75
2022/06/18 21:44:08;;;;;;;;;;;;;;;22.32;64.29;98669.41;8348000;28;19929;-75
2022/06/18 21:48:10;;;;;;;;;;;;;;;22.25;63.84;98671.56;8326087;28;19937;-76
2022/06/18 21:52:11;;;;;;;;;;;;;;;22.15;65.11;98664.34;8344997;28;20007;-75